Saum, Minnesota
Current Conditions -  °F | °C
As of 2:51 AM on Wednesday 26 Nov 2014 (Local Time) from KVWU Reporting Station
Light Snow Light Snow  
Wind Chill: 14°   Ceiling: 2300
Heat Index: 14°   Visibility: 4mi
Dew Point: 10°   Wind: 0mph
Humidity: 86%   Direction: NA
Pressure: 30.13"   Gusts: NA
Location:  47.9599°N, 94.5642°W
Report Text: KVWU 260851Z AUTO 00000KT 4SM -SN BKN023 BKN037 OVC046 M10/M12 A3013 RMK AO2
Loading
Personal Weather Stations






























Interactive Weather Map New forecast layout! Learn more

10-Day Weather Forecast

Advertisements
Track Severe Weather on mobile